createdAt,value
2023-03-05T00:02:32.149Z,68.52
2023-03-05T00:07:33.592Z,68.71
2023-03-05T00:12:35.111Z,68.20
2023-03-05T00:17:36.559Z,68.35
2023-03-05T00:22:37.989Z,68.56
2023-03-05T00:27:39.609Z,68.72
2023-03-05T00:32:41.074Z,68.91
2023-03-05T00:37:42.795Z,68.66
2023-03-05T00:42:44.253Z,68.67
2023-03-05T00:47:45.727Z,68.21
2023-03-05T00:52:47.183Z,69.09
2023-03-05T00:57:48.602Z,69.34
2023-03-05T01:02:50.124Z,68.75
2023-03-05T01:07:55.923Z,68.52
2023-03-05T01:12:57.578Z,68.91
2023-03-05T01:17:59.036Z,68.79
2023-03-05T01:23:01.705Z,69.29
2023-03-05T01:28:03.713Z,68.56
2023-03-05T01:33:05.172Z,69.35
2023-03-05T01:38:07.271Z,68.97
2023-03-05T01:43:11.393Z,69.02
2023-03-05T01:48:12.855Z,68.98
2023-03-05T01:53:14.351Z,69.05
2023-03-05T01:58:15.812Z,68.83
2023-03-05T02:03:17.437Z,68.90
2023-03-05T02:08:22.112Z,69.29
2023-03-05T02:13:27.270Z,68.78
2023-03-05T02:18:28.805Z,68.92
2023-03-05T02:23:36.585Z,69.31
2023-03-05T02:28:51.952Z,69.13
2023-03-05T02:33:54.094Z,68.95
2023-03-05T02:38:57.392Z,69.00
2023-03-05T02:43:58.862Z,69.06
2023-03-05T02:49:00.698Z,69.70
2023-03-05T02:54:02.146Z,69.47
2023-03-05T02:59:03.907Z,68.89
2023-03-05T03:04:05.726Z,69.92
2023-03-05T03:09:07.195Z,69.90
2023-03-05T03:14:08.835Z,69.27
2023-03-05T03:19:10.302Z,69.80
2023-03-05T03:24:11.750Z,69.81
2023-03-05T03:29:13.147Z,69.81
2023-03-05T03:34:15.864Z,70.00
2023-03-05T03:39:17.617Z,69.90
2023-03-05T03:44:20.787Z,70.43
2023-03-05T03:49:25.141Z,70.58
2023-03-05T03:54:26.597Z,70.06
2023-03-05T03:59:28.172Z,69.88
2023-03-05T04:04:30.354Z,70.14
2023-03-05T04:09:31.825Z,70.97
2023-03-05T04:14:33.324Z,70.54
2023-03-05T04:19:36.835Z,70.75
2023-03-05T04:24:38.765Z,71.52
2023-03-05T04:29:40.168Z,71.06
2023-03-05T04:34:41.614Z,71.65
2023-03-05T04:39:43.726Z,71.34
2023-03-05T04:44:45.360Z,71.03
2023-03-05T04:49:46.930Z,71.24
2023-03-05T04:54:48.440Z,71.49
2023-03-05T04:59:49.904Z,71.12
2023-03-05T05:04:54.722Z,71.42
2023-03-05T05:09:56.135Z,70.99
2023-03-05T05:14:58.027Z,71.19
2023-03-05T05:20:00.572Z,71.30
2023-03-05T05:25:02.139Z,71.04
2023-03-05T05:30:04.519Z,71.29
2023-03-05T05:35:06.484Z,71.59
2023-03-05T05:40:09.522Z,71.41
2023-03-05T05:45:12.058Z,71.03
2023-03-05T05:50:14.481Z,71.47
2023-03-05T05:55:16.084Z,71.35
2023-03-05T06:00:17.913Z,71.24
2023-03-05T06:05:19.509Z,71.54
2023-03-05T06:10:20.999Z,71.85
2023-03-05T06:15:22.421Z,71.28
2023-03-05T06:20:23.946Z,71.30
2023-03-05T06:25:25.373Z,71.51
2023-03-05T06:30:26.846Z,71.21
2023-03-05T06:35:28.333Z,70.92
2023-03-05T06:40:29.793Z,71.00
2023-03-05T06:45:31.347Z,71.39
2023-03-05T06:50:36.550Z,71.47
2023-03-05T06:55:39.752Z,71.67
2023-03-05T07:00:41.514Z,71.63
2023-03-05T07:05:43.699Z,71.04
2023-03-05T07:10:45.201Z,71.57
2023-03-05T07:15:46.613Z,71.34
2023-03-05T07:20:48.115Z,71.60
2023-03-05T07:25:49.497Z,71.52
2023-03-05T07:31:05.554Z,71.51
2023-03-05T07:36:11.514Z,70.86
2023-03-05T07:41:19.641Z,70.75
2023-03-05T07:46:24.750Z,71.20
2023-03-05T07:51:27.316Z,71.27
2023-03-05T07:56:35.287Z,70.07
2023-03-05T08:01:37.380Z,70.67
2023-03-05T08:06:40.963Z,70.33
2023-03-05T08:11:42.804Z,69.74
2023-03-05T08:16:46.313Z,68.69
2023-03-05T08:21:48.665Z,69.00
2023-03-05T08:26:50.080Z,68.57
2023-03-05T08:31:53.614Z,68.18
2023-03-05T08:36:55.204Z,68.77
2023-03-05T08:41:56.761Z,68.56
2023-03-05T08:46:58.212Z,67.71
2023-03-05T08:51:59.672Z,68.45
2023-03-05T08:57:01.446Z,66.76
2023-03-05T09:02:04.361Z,67.17
2023-03-05T09:07:06.001Z,66.72
2023-03-05T09:12:07.725Z,65.98
2023-03-05T09:17:09.325Z,66.84
2023-03-05T09:22:10.736Z,66.30
2023-03-05T09:27:12.805Z,66.88
2023-03-05T09:32:14.394Z,67.48
2023-03-05T09:37:15.877Z,67.39
2023-03-05T09:42:41.716Z,67.24
2023-03-05T09:48:06.478Z,66.51
2023-03-05T09:53:21.805Z,66.51
2023-03-05T09:58:33.884Z,67.32
2023-03-05T10:03:58.031Z,67.33
2023-03-05T10:09:28.330Z,66.01
2023-03-05T10:14:35.627Z,66.01
2023-03-05T10:19:51.699Z,66.11
2023-03-05T10:25:05.366Z,65.46
2023-03-05T10:30:29.196Z,65.29
2023-03-05T10:35:45.472Z,66.20
2023-03-05T10:40:51.241Z,65.82
2023-03-05T10:45:54.023Z,65.09
2023-03-05T10:51:13.479Z,65.96
2023-03-05T10:56:15.880Z,65.37
2023-03-05T11:01:24.316Z,66.01
2023-03-05T11:06:41.832Z,66.71
2023-03-05T11:11:43.618Z,66.45
2023-03-05T11:16:50.887Z,66.96
2023-03-05T11:22:20.528Z,66.61
2023-03-05T11:27:43.081Z,66.83
2023-03-05T11:32:44.557Z,66.36
2023-03-05T11:38:00.758Z,65.65
2023-03-05T11:43:03.964Z,65.16
2023-03-05T11:48:28.385Z,65.80
2023-03-05T11:53:35.895Z,65.41
2023-03-05T11:59:04.682Z,64.81
2023-03-05T12:04:08.536Z,65.07
2023-03-05T12:09:18.675Z,65.32
2023-03-05T12:14:28.771Z,65.34
2023-03-05T12:19:39.380Z,65.31
2023-03-05T12:24:41.182Z,64.57
2023-03-05T12:29:49.241Z,65.50
2023-03-05T12:35:26.107Z,65.12
2023-03-05T12:40:29.015Z,65.74
2023-03-05T12:45:36.412Z,65.41
2023-03-05T12:50:37.745Z,65.55
2023-03-05T12:55:48.289Z,65.36
2023-03-05T13:00:54.551Z,65.59
2023-03-05T13:05:58.811Z,65.97
2023-03-05T13:11:01.232Z,66.46
2023-03-05T13:16:03.842Z,66.17
2023-03-05T13:21:08.137Z,66.57
2023-03-05T13:26:15.475Z,66.56
2023-03-05T13:31:19.329Z,66.87
2023-03-05T13:36:24.032Z,66.19
2023-03-05T13:41:27.738Z,66.63
2023-03-05T13:46:39.229Z,66.11
2023-03-05T13:51:42.789Z,66.39
2023-03-05T13:57:00.200Z,66.33
2023-03-05T14:02:05.848Z,66.06
2023-03-05T14:07:24.444Z,66.44
2023-03-05T14:12:35.637Z,67.00
2023-03-05T14:17:43.688Z,67.16
2023-03-05T14:22:48.443Z,66.67
2023-03-05T14:27:49.902Z,66.47
2023-03-05T14:32:55.474Z,67.12
2023-03-05T14:37:59.270Z,66.02
2023-03-05T14:43:10.796Z,67.46
2023-03-05T14:48:15.145Z,67.29
2023-03-05T14:53:38.637Z,67.19
2023-03-05T14:58:40.174Z,67.26
2023-03-05T15:03:41.666Z,67.69
2023-03-05T15:08:43.200Z,68.50
2023-03-05T15:13:44.658Z,68.36
2023-03-05T15:18:46.209Z,67.52
2023-03-05T15:23:47.651Z,68.23
2023-03-05T15:28:49.861Z,67.55
2023-03-05T15:33:51.289Z,68.01
2023-03-05T15:38:52.676Z,68.32
2023-03-05T15:43:54.106Z,68.19
2023-03-05T15:48:55.520Z,68.04
2023-03-05T15:53:57.919Z,68.24
2023-03-05T15:58:59.831Z,69.40
2023-03-05T16:04:01.726Z,69.64
2023-03-05T16:09:04.909Z,70.03
2023-03-05T16:14:09.755Z,70.20
2023-03-05T16:19:15.743Z,69.21
2023-03-05T16:24:17.670Z,69.96
2023-03-05T16:29:19.264Z,69.43
2023-03-05T16:34:20.850Z,70.06
2023-03-05T16:39:22.608Z,69.66
2023-03-05T16:44:24.036Z,70.49
2023-03-05T16:49:25.527Z,69.97
2023-03-05T16:54:27.183Z,69.95
2023-03-05T16:59:29.578Z,70.15
2023-03-05T17:04:31.119Z,70.18
2023-03-05T17:09:32.940Z,70.63
2023-03-05T17:14:34.480Z,70.72
2023-03-05T17:19:35.994Z,70.38
2023-03-05T17:24:38.379Z,71.25
2023-03-05T17:29:39.892Z,71.00
2023-03-05T17:34:41.645Z,70.60
2023-03-05T17:39:43.261Z,71.01
2023-03-05T17:44:44.696Z,71.15
2023-03-05T17:49:46.128Z,70.62
2023-03-05T17:54:48.925Z,71.32
2023-03-05T17:59:50.438Z,71.59
2023-03-05T18:04:52.144Z,71.45
2023-03-05T18:09:53.541Z,71.03
2023-03-05T18:14:54.919Z,71.85
2023-03-05T18:19:56.691Z,71.60
2023-03-05T18:24:58.182Z,72.11
2023-03-05T18:29:59.584Z,72.51
2023-03-05T18:35:01.024Z,72.28
2023-03-05T18:40:03.165Z,71.88
2023-03-05T18:45:06.436Z,72.85
2023-03-05T18:50:14.690Z,71.92
2023-03-05T18:55:20.284Z,71.85
2023-03-05T19:00:25.334Z,72.36
2023-03-05T19:05:26.943Z,72.40
2023-03-05T19:10:28.475Z,72.56
2023-03-05T19:15:29.925Z,72.47
2023-03-05T19:20:31.444Z,72.91
2023-03-05T19:25:33.400Z,73.43
2023-03-05T19:30:35.947Z,73.71
2023-03-05T19:35:37.669Z,73.07
2023-03-05T19:40:41.477Z,74.20
2023-03-05T19:45:43.176Z,73.26
2023-03-05T19:50:44.564Z,73.55
2023-03-05T19:55:45.952Z,73.96
2023-03-05T20:00:47.500Z,74.21
2023-03-05T20:05:48.919Z,73.84
2023-03-05T20:10:50.373Z,73.06
2023-03-05T20:15:52.676Z,73.66
2023-03-05T20:20:57.766Z,73.49
2023-03-05T20:25:59.638Z,72.54
2023-03-05T20:31:02.140Z,72.35
2023-03-05T20:36:04.353Z,73.21
2023-03-05T20:41:10.138Z,72.15
2023-03-05T20:46:19.020Z,72.92
2023-03-05T20:51:26.244Z,72.80
2023-03-05T20:56:29.198Z,72.79
2023-03-05T21:01:33.028Z,71.86
2023-03-05T21:06:34.884Z,72.10
2023-03-05T21:11:37.256Z,72.00
2023-03-05T21:16:38.921Z,72.37
2023-03-05T21:21:44.702Z,72.34
2023-03-05T21:26:46.539Z,71.92
2023-03-05T21:31:48.052Z,71.53
2023-03-05T21:36:49.480Z,71.33
2023-03-05T21:41:50.969Z,71.92
2023-03-05T21:46:52.407Z,72.37
2023-03-05T21:52:08.980Z,71.96
2023-03-05T21:57:11.507Z,72.34
2023-03-05T22:02:14.095Z,72.21
2023-03-05T22:07:16.753Z,71.66
2023-03-05T22:12:26.785Z,71.95
2023-03-05T22:17:28.170Z,72.26
2023-03-05T22:22:29.673Z,72.22
2023-03-05T22:27:31.137Z,71.56
2023-03-05T22:32:34.988Z,71.31
2023-03-05T22:37:36.390Z,71.65
2023-03-05T22:42:37.789Z,71.83
2023-03-05T22:47:39.171Z,72.09
2023-03-05T22:52:40.604Z,71.68
2023-03-05T22:57:43.691Z,71.72
2023-03-05T23:02:45.130Z,71.73
2023-03-05T23:07:46.649Z,71.90
2023-03-05T23:12:50.718Z,72.72
2023-03-05T23:17:52.300Z,72.43
2023-03-05T23:22:55.932Z,72.26
2023-03-05T23:27:58.633Z,72.53
2023-03-05T23:33:07.721Z,72.91
2023-03-05T23:38:12.572Z,72.76
2023-03-05T23:43:15.496Z,72.76
2023-03-05T23:48:17.895Z,72.84
2023-03-05T23:53:25.544Z,72.88
2023-03-05T23:58:27.044Z,72.40
